sensor_id;sensor_type;location;lat;lon;timestamp;temperature;humidity
36548;DHT22;22551;52.206;4.856;2022-11-20T00:02:54;-1.60;99.90
36548;DHT22;22551;52.206;4.856;2022-11-20T00:07:58;-1.60;99.90
36548;DHT22;22551;52.206;4.856;2022-11-20T00:13:00;-1.70;99.90
36548;DHT22;22551;52.206;4.856;2022-11-20T00:18:02;-1.70;99.90
36548;DHT22;22551;52.206;4.856;2022-11-20T00:23:06;-1.70;99.90
36548;DHT22;22551;52.206;4.856;2022-11-20T00:28:08;-1.70;99.90
36548;DHT22;22551;52.206;4.856;2022-11-20T00:33:10;-1.80;99.90
36548;DHT22;22551;52.206;4.856;2022-11-20T00:38:14;-1.80;99.90
36548;DHT22;22551;52.206;4.856;2022-11-20T00:43:16;-1.90;99.90
36548;DHT22;22551;52.206;4.856;2022-11-20T00:48:18;-2.00;99.90
36548;DHT22;22551;52.206;4.856;2022-11-20T00:53:22;-2.00;99.90
36548;DHT22;22551;52.206;4.856;2022-11-20T00:58:28;-2.00;99.90
36548;DHT22;22551;52.206;4.856;2022-11-20T01:03:34;-2.10;99.90
36548;DHT22;22551;52.206;4.856;2022-11-20T01:08:39;-2.10;99.90
36548;DHT22;22551;52.206;4.856;2022-11-20T01:13:42;-2.10;99.90
36548;DHT22;22551;52.206;4.856;2022-11-20T01:18:48;-2.10;99.90
36548;DHT22;22551;52.206;4.856;2022-11-20T01:23:52;-2.10;99.90
36548;DHT22;22551;52.206;4.856;2022-11-20T01:28:56;-2.20;99.90
36548;DHT22;22551;52.206;4.856;2022-11-20T01:34:01;-2.20;99.90
36548;DHT22;22551;52.206;4.856;2022-11-20T01:39:39;-2.30;99.90
36548;DHT22;22551;52.206;4.856;2022-11-20T01:44:53;-2.20;99.90
36548;DHT22;22551;52.206;4.856;2022-11-20T01:49:59;-2.30;99.90
36548;DHT22;22551;52.206;4.856;2022-11-20T01:55:10;-2.30;99.90
36548;DHT22;22551;52.206;4.856;2022-11-20T02:00:18;-2.40;99.90
36548;DHT22;22551;52.206;4.856;2022-11-20T02:05:25;-2.40;99.90
36548;DHT22;22551;52.206;4.856;2022-11-20T02:10:33;-2.40;99.90
36548;DHT22;22551;52.206;4.856;2022-11-20T02:15:36;-2.50;99.90
36548;DHT22;22551;52.206;4.856;2022-11-20T02:20:38;-2.50;99.90
36548;DHT22;22551;52.206;4.856;2022-11-20T02:25:43;-2.50;99.90
36548;DHT22;22551;52.206;4.856;2022-11-20T02:30:47;-2.50;99.90
36548;DHT22;22551;52.206;4.856;2022-11-20T02:35:50;-2.60;99.90
36548;DHT22;22551;52.206;4.856;2022-11-20T02:40:54;-2.60;99.90
36548;DHT22;22551;52.206;4.856;2022-11-20T02:45:56;-2.60;99.90
36548;DHT22;22551;52.206;4.856;2022-11-20T02:50:58;-2.60;99.90
36548;DHT22;22551;52.206;4.856;2022-11-20T02:56:01;-2.70;99.90
36548;DHT22;22551;52.206;4.856;2022-11-20T03:01:04;-2.60;99.90
36548;DHT22;22551;52.206;4.856;2022-11-20T03:06:06;-2.70;99.90
36548;DHT22;22551;52.206;4.856;2022-11-20T03:11:10;-2.70;99.90
36548;DHT22;22551;52.206;4.856;2022-11-20T03:16:14;-2.70;99.90
36548;DHT22;22551;52.206;4.856;2022-11-20T03:21:18;-2.60;99.90
36548;DHT22;22551;52.206;4.856;2022-11-20T03:26:23;-2.70;99.90
36548;DHT22;22551;52.206;4.856;2022-11-20T03:31:27;-2.70;99.90
36548;DHT22;22551;52.206;4.856;2022-11-20T03:36:31;-2.70;99.90
36548;DHT22;22551;52.206;4.856;2022-11-20T03:41:38;-2.70;99.90
36548;DHT22;22551;52.206;4.856;2022-11-20T03:46:41;-2.80;99.90
36548;DHT22;22551;52.206;4.856;2022-11-20T03:51:43;-2.80;99.90
36548;DHT22;22551;52.206;4.856;2022-11-20T03:56:48;-2.80;99.90
36548;DHT22;22551;52.206;4.856;2022-11-20T04:01:50;-2.80;99.90
36548;DHT22;22551;52.206;4.856;2022-11-20T04:06:52;-2.90;99.90
36548;DHT22;22551;52.206;4.856;2022-11-20T04:11:56;-2.90;99.90
36548;DHT22;22551;52.206;4.856;2022-11-20T04:16:58;-2.90;99.90
36548;DHT22;22551;52.206;4.856;2022-11-20T04:22:00;-2.90;99.90
36548;DHT22;22551;52.206;4.856;2022-11-20T04:27:04;-2.90;99.90
36548;DHT22;22551;52.206;4.856;2022-11-20T04:32:06;-2.90;99.90
36548;DHT22;22551;52.206;4.856;2022-11-20T04:37:11;-2.90;99.90
36548;DHT22;22551;52.206;4.856;2022-11-20T04:42:14;-2.90;99.90
36548;DHT22;22551;52.206;4.856;2022-11-20T04:47:32;-3.00;99.90
36548;DHT22;22551;52.206;4.856;2022-11-20T04:52:35;-3.00;99.90
36548;DHT22;22551;52.206;4.856;2022-11-20T04:57:39;-2.90;99.90
36548;DHT22;22551;52.206;4.856;2022-11-20T05:02:41;-2.90;99.90
36548;DHT22;22551;52.206;4.856;2022-11-20T05:07:43;-3.00;99.90
36548;DHT22;22551;52.206;4.856;2022-11-20T05:12:47;-3.00;99.90
36548;DHT22;22551;52.206;4.856;2022-11-20T05:17:50;-3.00;99.90
36548;DHT22;22551;52.206;4.856;2022-11-20T05:22:56;-3.00;99.90
36548;DHT22;22551;52.206;4.856;2022-11-20T05:28:00;-3.00;99.90
36548;DHT22;22551;52.206;4.856;2022-11-20T05:33:02;-3.10;99.90
36548;DHT22;22551;52.206;4.856;2022-11-20T05:38:04;-3.10;99.90
36548;DHT22;22551;52.206;4.856;2022-11-20T05:43:08;-3.10;99.90
36548;DHT22;22551;52.206;4.856;2022-11-20T05:48:10;-3.10;99.90
36548;DHT22;22551;52.206;4.856;2022-11-20T05:53:12;-3.10;99.90
36548;DHT22;22551;52.206;4.856;2022-11-20T05:58:17;-3.10;99.90
36548;DHT22;22551;52.206;4.856;2022-11-20T06:03:19;-3.20;99.90
36548;DHT22;22551;52.206;4.856;2022-11-20T06:08:22;-3.10;99.90
36548;DHT22;22551;52.206;4.856;2022-11-20T06:13:26;-3.10;99.90
36548;DHT22;22551;52.206;4.856;2022-11-20T06:18:28;-3.00;99.90
36548;DHT22;22551;52.206;4.856;2022-11-20T06:23:33;-3.00;99.90
36548;DHT22;22551;52.206;4.856;2022-11-20T06:28:37;-3.00;99.90
36548;DHT22;22551;52.206;4.856;2022-11-20T06:33:39;-3.00;99.90
36548;DHT22;22551;52.206;4.856;2022-11-20T06:38:43;-3.00;99.90
36548;DHT22;22551;52.206;4.856;2022-11-20T06:43:47;-2.90;99.90
36548;DHT22;22551;52.206;4.856;2022-11-20T06:48:50;-2.90;99.90
36548;DHT22;22551;52.206;4.856;2022-11-20T06:53:53;-2.90;99.90
36548;DHT22;22551;52.206;4.856;2022-11-20T06:58:56;-2.80;99.90
36548;DHT22;22551;52.206;4.856;2022-11-20T07:03:59;-2.80;99.90
36548;DHT22;22551;52.206;4.856;2022-11-20T07:09:01;-2.80;99.90
36548;DHT22;22551;52.206;4.856;2022-11-20T07:14:05;-2.70;99.90
36548;DHT22;22551;52.206;4.856;2022-11-20T07:19:07;-2.60;99.90
36548;DHT22;22551;52.206;4.856;2022-11-20T07:24:09;-2.60;99.90
36548;DHT22;22551;52.206;4.856;2022-11-20T07:29:12;-2.50;99.90
36548;DHT22;22551;52.206;4.856;2022-11-20T07:34:15;-2.40;99.90
36548;DHT22;22551;52.206;4.856;2022-11-20T07:39:17;-2.30;99.90
36548;DHT22;22551;52.206;4.856;2022-11-20T07:44:21;-2.20;99.90
36548;DHT22;22551;52.206;4.856;2022-11-20T07:49:23;-2.10;99.90
36548;DHT22;22551;52.206;4.856;2022-11-20T07:54:28;-2.00;99.90
36548;DHT22;22551;52.206;4.856;2022-11-20T07:59:33;-2.00;99.90
36548;DHT22;22551;52.206;4.856;2022-11-20T08:04:36;-1.80;99.90
36548;DHT22;22551;52.206;4.856;2022-11-20T08:09:38;-1.70;99.90
36548;DHT22;22551;52.206;4.856;2022-11-20T08:14:42;-1.60;99.90
36548;DHT22;22551;52.206;4.856;2022-11-20T08:19:44;-1.50;99.90
36548;DHT22;22551;52.206;4.856;2022-11-20T08:24:47;-1.40;99.90
36548;DHT22;22551;52.206;4.856;2022-11-20T08:29:51;-1.30;99.90
36548;DHT22;22551;52.206;4.856;2022-11-20T08:34:53;-1.20;99.90
36548;DHT22;22551;52.206;4.856;2022-11-20T08:39:55;-1.10;99.90
36548;DHT22;22551;52.206;4.856;2022-11-20T08:44:59;-1.10;99.90
36548;DHT22;22551;52.206;4.856;2022-11-20T08:50:01;-0.90;99.90
36548;DHT22;22551;52.206;4.856;2022-11-20T08:55:05;-0.80;99.90
36548;DHT22;22551;52.206;4.856;2022-11-20T09:00:11;-0.70;99.90
36548;DHT22;22551;52.206;4.856;2022-11-20T09:05:14;-0.50;99.90
36548;DHT22;22551;52.206;4.856;2022-11-20T09:10:17;-0.50;99.90
36548;DHT22;22551;52.206;4.856;2022-11-20T09:15:22;-0.40;99.90
36548;DHT22;22551;52.206;4.856;2022-11-20T09:20:25;-0.30;99.90
36548;DHT22;22551;52.206;4.856;2022-11-20T09:25:28;-0.20;99.90
36548;DHT22;22551;52.206;4.856;2022-11-20T09:30:31;-0.10;99.90
36548;DHT22;22551;52.206;4.856;2022-11-20T09:35:36;0.00;99.90
36548;DHT22;22551;52.206;4.856;2022-11-20T09:40:44;0.10;99.90
36548;DHT22;22551;52.206;4.856;2022-11-20T09:46:04;0.20;99.90
36548;DHT22;22551;52.206;4.856;2022-11-20T09:51:20;0.40;99.90
36548;DHT22;22551;52.206;4.856;2022-11-20T09:56:30;0.50;99.90
36548;DHT22;22551;52.206;4.856;2022-11-20T10:01:36;0.50;99.90
36548;DHT22;22551;52.206;4.856;2022-11-20T10:06:54;0.50;99.90
36548;DHT22;22551;52.206;4.856;2022-11-20T10:12:13;0.70;99.90
36548;DHT22;22551;52.206;4.856;2022-11-20T10:17:27;0.70;99.90
36548;DHT22;22551;52.206;4.856;2022-11-20T10:22:52;0.80;99.90
36548;DHT22;22551;52.206;4.856;2022-11-20T10:28:21;1.00;99.90
36548;DHT22;22551;52.206;4.856;2022-11-20T10:33:34;1.00;99.90
36548;DHT22;22551;52.206;4.856;2022-11-20T10:38:40;1.20;99.90
36548;DHT22;22551;52.206;4.856;2022-11-20T10:43:46;1.30;99.90
36548;DHT22;22551;52.206;4.856;2022-11-20T10:48:51;1.20;99.90
36548;DHT22;22551;52.206;4.856;2022-11-20T10:53:58;1.20;99.90
36548;DHT22;22551;52.206;4.856;2022-11-20T10:59:38;1.30;99.90
36548;DHT22;22551;52.206;4.856;2022-11-20T11:04:46;1.30;99.90
36548;DHT22;22551;52.206;4.856;2022-11-20T11:09:50;1.60;99.90
36548;DHT22;22551;52.206;4.856;2022-11-20T11:14:56;1.60;99.90
36548;DHT22;22551;52.206;4.856;2022-11-20T11:25:37;1.70;99.90
36548;DHT22;22551;52.206;4.856;2022-11-20T11:30:46;1.80;99.90
36548;DHT22;22551;52.206;4.856;2022-11-20T11:35:51;1.80;99.90
36548;DHT22;22551;52.206;4.856;2022-11-20T11:40:59;2.10;99.90
36548;DHT22;22551;52.206;4.856;2022-11-20T11:46:01;2.20;99.90
36548;DHT22;22551;52.206;4.856;2022-11-20T11:51:08;2.10;99.90
36548;DHT22;22551;52.206;4.856;2022-11-20T11:56:13;2.20;99.90
36548;DHT22;22551;52.206;4.856;2022-11-20T12:01:26;2.30;99.90
36548;DHT22;22551;52.206;4.856;2022-11-20T12:06:34;2.40;99.90
36548;DHT22;22551;52.206;4.856;2022-11-20T12:11:45;2.50;99.90
36548;DHT22;22551;52.206;4.856;2022-11-20T12:16:51;2.60;99.90
36548;DHT22;22551;52.206;4.856;2022-11-20T12:22:01;2.70;99.90
36548;DHT22;22551;52.206;4.856;2022-11-20T12:38:42;2.70;99.90
36548;DHT22;22551;52.206;4.856;2022-11-20T12:43:59;2.60;99.90
36548;DHT22;22551;52.206;4.856;2022-11-20T12:49:30;2.70;99.90
36548;DHT22;22551;52.206;4.856;2022-11-20T12:55:16;2.70;99.90
36548;DHT22;22551;52.206;4.856;2022-11-20T13:00:27;2.70;99.90
36548;DHT22;22551;52.206;4.856;2022-11-20T13:05:37;2.70;99.90
36548;DHT22;22551;52.206;4.856;2022-11-20T13:10:54;2.70;99.90
36548;DHT22;22551;52.206;4.856;2022-11-20T13:16:05;2.70;99.90
36548;DHT22;22551;52.206;4.856;2022-11-20T13:21:17;2.70;99.90
36548;DHT22;22551;52.206;4.856;2022-11-20T13:26:22;2.70;99.90
36548;DHT22;22551;52.206;4.856;2022-11-20T13:31:32;2.70;99.90
36548;DHT22;22551;52.206;4.856;2022-11-20T13:36:35;2.70;99.90
36548;DHT22;22551;52.206;4.856;2022-11-20T13:41:38;2.70;99.90
36548;DHT22;22551;52.206;4.856;2022-11-20T13:46:45;2.60;99.90
36548;DHT22;22551;52.206;4.856;2022-11-20T13:51:48;2.70;99.90
36548;DHT22;22551;52.206;4.856;2022-11-20T13:56:59;2.70;99.90
36548;DHT22;22551;52.206;4.856;2022-11-20T14:02:11;2.80;99.90
36548;DHT22;22551;52.206;4.856;2022-11-20T14:07:15;2.80;99.90
36548;DHT22;22551;52.206;4.856;2022-11-20T14:12:19;2.80;99.90
36548;DHT22;22551;52.206;4.856;2022-11-20T14:17:33;2.80;99.90
36548;DHT22;22551;52.206;4.856;2022-11-20T14:22:37;2.80;99.90
36548;DHT22;22551;52.206;4.856;2022-11-20T14:27:41;2.80;99.90
36548;DHT22;22551;52.206;4.856;2022-11-20T14:32:46;2.80;99.90
36548;DHT22;22551;52.206;4.856;2022-11-20T14:37:49;2.80;99.90
36548;DHT22;22551;52.206;4.856;2022-11-20T14:42:52;2.80;99.90
36548;DHT22;22551;52.206;4.856;2022-11-20T14:47:57;2.80;99.90
36548;DHT22;22551;52.206;4.856;2022-11-20T14:53:01;2.80;99.90
36548;DHT22;22551;52.206;4.856;2022-11-20T14:58:05;2.80;99.90
36548;DHT22;22551;52.206;4.856;2022-11-20T15:03:16;2.80;99.90
36548;DHT22;22551;52.206;4.856;2022-11-20T15:08:18;2.70;99.90
36548;DHT22;22551;52.206;4.856;2022-11-20T15:13:26;2.80;99.90
36548;DHT22;22551;52.206;4.856;2022-11-20T15:18:37;2.80;99.90
36548;DHT22;22551;52.206;4.856;2022-11-20T15:23:42;2.80;99.90
36548;DHT22;22551;52.206;4.856;2022-11-20T15:28:45;2.80;99.90
36548;DHT22;22551;52.206;4.856;2022-11-20T15:33:52;2.80;99.90
36548;DHT22;22551;52.206;4.856;2022-11-20T15:38:54;2.80;99.90
36548;DHT22;22551;52.206;4.856;2022-11-20T15:43:56;2.80;99.90
36548;DHT22;22551;52.206;4.856;2022-11-20T15:49:00;2.80;99.90
36548;DHT22;22551;52.206;4.856;2022-11-20T15:54:10;2.90;99.90
36548;DHT22;22551;52.206;4.856;2022-11-20T15:59:13;2.90;99.90
36548;DHT22;22551;52.206;4.856;2022-11-20T16:04:17;2.90;99.90
36548;DHT22;22551;52.206;4.856;2022-11-20T16:09:20;2.90;99.90
36548;DHT22;22551;52.206;4.856;2022-11-20T16:14:22;2.90;99.90
36548;DHT22;22551;52.206;4.856;2022-11-20T16:19:43;2.90;99.90
36548;DHT22;22551;52.206;4.856;2022-11-20T16:24:45;2.80;99.90
36548;DHT22;22551;52.206;4.856;2022-11-20T16:29:47;2.90;99.90
36548;DHT22;22551;52.206;4.856;2022-11-20T16:34:51;2.90;99.90
36548;DHT22;22551;52.206;4.856;2022-11-20T16:39:53;2.90;99.90
36548;DHT22;22551;52.206;4.856;2022-11-20T16:44:56;3.00;99.90
36548;DHT22;22551;52.206;4.856;2022-11-20T16:50:00;3.00;99.90
36548;DHT22;22551;52.206;4.856;2022-11-20T16:55:03;3.00;99.90
36548;DHT22;22551;52.206;4.856;2022-11-20T17:00:06;3.10;99.90
36548;DHT22;22551;52.206;4.856;2022-11-20T17:05:11;3.10;99.90
36548;DHT22;22551;52.206;4.856;2022-11-20T17:10:13;3.10;99.90
36548;DHT22;22551;52.206;4.856;2022-11-20T17:15:16;3.10;99.90
36548;DHT22;22551;52.206;4.856;2022-11-20T17:20:22;3.20;99.90
36548;DHT22;22551;52.206;4.856;2022-11-20T17:25:27;3.20;99.90
36548;DHT22;22551;52.206;4.856;2022-11-20T17:30:29;3.20;99.90
36548;DHT22;22551;52.206;4.856;2022-11-20T17:35:34;3.30;99.90
36548;DHT22;22551;52.206;4.856;2022-11-20T17:40:37;3.30;99.90
36548;DHT22;22551;52.206;4.856;2022-11-20T17:45:41;3.20;99.90
36548;DHT22;22551;52.206;4.856;2022-11-20T17:50:45;3.30;99.90
36548;DHT22;22551;52.206;4.856;2022-11-20T17:55:54;3.30;99.90
36548;DHT22;22551;52.206;4.856;2022-11-20T18:01:14;3.40;99.90
36548;DHT22;22551;52.206;4.856;2022-11-20T18:06:20;3.40;99.90
36548;DHT22;22551;52.206;4.856;2022-11-20T18:11:49;3.40;99.90
36548;DHT22;22551;52.206;4.856;2022-11-20T18:16:53;3.40;99.90
36548;DHT22;22551;52.206;4.856;2022-11-20T18:21:58;3.40;99.90
36548;DHT22;22551;52.206;4.856;2022-11-20T18:27:01;3.40;99.90
36548;DHT22;22551;52.206;4.856;2022-11-20T18:32:04;3.40;99.90
36548;DHT22;22551;52.206;4.856;2022-11-20T18:37:14;3.40;99.90
36548;DHT22;22551;52.206;4.856;2022-11-20T18:42:17;3.40;99.90
36548;DHT22;22551;52.206;4.856;2022-11-20T18:47:38;3.40;99.90
36548;DHT22;22551;52.206;4.856;2022-11-20T18:52:43;3.40;99.90
36548;DHT22;22551;52.206;4.856;2022-11-20T19:03:49;3.40;99.90
36548;DHT22;22551;52.206;4.856;2022-11-20T19:08:52;3.50;99.90
36548;DHT22;22551;52.206;4.856;2022-11-20T19:13:56;3.40;99.90
36548;DHT22;22551;52.206;4.856;2022-11-20T19:18:59;3.40;99.90
36548;DHT22;22551;52.206;4.856;2022-11-20T19:24:07;3.30;99.90
36548;DHT22;22551;52.206;4.856;2022-11-20T19:29:12;3.40;99.90
36548;DHT22;22551;52.206;4.856;2022-11-20T19:34:15;3.40;99.90
36548;DHT22;22551;52.206;4.856;2022-11-20T19:39:19;3.40;99.90
36548;DHT22;22551;52.206;4.856;2022-11-20T19:44:23;3.40;99.90
36548;DHT22;22551;52.206;4.856;2022-11-20T19:49:31;3.40;99.90
36548;DHT22;22551;52.206;4.856;2022-11-20T19:54:37;3.50;99.90
36548;DHT22;22551;52.206;4.856;2022-11-20T19:59:40;3.50;99.90
36548;DHT22;22551;52.206;4.856;2022-11-20T20:04:44;3.50;99.90
36548;DHT22;22551;52.206;4.856;2022-11-20T20:09:49;3.50;99.90
36548;DHT22;22551;52.206;4.856;2022-11-20T20:14:51;3.50;99.90
36548;DHT22;22551;52.206;4.856;2022-11-20T20:19:53;3.50;99.90
36548;DHT22;22551;52.206;4.856;2022-11-20T20:24:57;3.50;99.90
36548;DHT22;22551;52.206;4.856;2022-11-20T20:30:00;3.50;99.90
36548;DHT22;22551;52.206;4.856;2022-11-20T20:35:03;3.50;99.90
36548;DHT22;22551;52.206;4.856;2022-11-20T20:40:09;3.50;99.90
36548;DHT22;22551;52.206;4.856;2022-11-20T20:45:12;3.60;99.90
36548;DHT22;22551;52.206;4.856;2022-11-20T20:50:14;3.60;99.90
36548;DHT22;22551;52.206;4.856;2022-11-20T20:55:19;3.60;99.90
36548;DHT22;22551;52.206;4.856;2022-11-20T21:00:21;3.50;99.90
36548;DHT22;22551;52.206;4.856;2022-11-20T21:05:25;3.50;99.90
36548;DHT22;22551;52.206;4.856;2022-11-20T21:10:28;3.60;99.90
36548;DHT22;22551;52.206;4.856;2022-11-20T21:15:31;3.50;99.90
36548;DHT22;22551;52.206;4.856;2022-11-20T21:20:34;3.50;99.90
36548;DHT22;22551;52.206;4.856;2022-11-20T21:25:55;3.50;99.90
36548;DHT22;22551;52.206;4.856;2022-11-20T21:31:08;3.50;99.90
36548;DHT22;22551;52.206;4.856;2022-11-20T21:36:15;3.50;99.90
36548;DHT22;22551;52.206;4.856;2022-11-20T21:41:20;3.40;99.90
36548;DHT22;22551;52.206;4.856;2022-11-20T21:46:23;3.40;99.90
36548;DHT22;22551;52.206;4.856;2022-11-20T21:51:26;3.40;99.90
36548;DHT22;22551;52.206;4.856;2022-11-20T21:56:30;3.30;99.90
36548;DHT22;22551;52.206;4.856;2022-11-20T22:01:32;3.30;99.90
36548;DHT22;22551;52.206;4.856;2022-11-20T22:06:34;3.30;99.90
36548;DHT22;22551;52.206;4.856;2022-11-20T22:11:38;3.30;99.90
36548;DHT22;22551;52.206;4.856;2022-11-20T22:16:40;3.30;99.90
36548;DHT22;22551;52.206;4.856;2022-11-20T22:21:43;3.30;99.90
36548;DHT22;22551;52.206;4.856;2022-11-20T22:26:47;3.20;99.90
36548;DHT22;22551;52.206;4.856;2022-11-20T22:31:51;3.10;99.90
36548;DHT22;22551;52.206;4.856;2022-11-20T22:36:53;3.10;99.90
36548;DHT22;22551;52.206;4.856;2022-11-20T22:41:56;3.20;99.90
36548;DHT22;22551;52.206;4.856;2022-11-20T22:46:59;3.10;99.90
36548;DHT22;22551;52.206;4.856;2022-11-20T22:52:01;3.20;99.90
36548;DHT22;22551;52.206;4.856;2022-11-20T22:57:04;3.10;99.90
36548;DHT22;22551;52.206;4.856;2022-11-20T23:02:06;3.20;99.90
36548;DHT22;22551;52.206;4.856;2022-11-20T23:07:08;3.20;99.90
36548;DHT22;22551;52.206;4.856;2022-11-20T23:12:12;3.30;99.90
36548;DHT22;22551;52.206;4.856;2022-11-20T23:17:14;3.30;99.90
36548;DHT22;22551;52.206;4.856;2022-11-20T23:22:16;3.30;99.90
36548;DHT22;22551;52.206;4.856;2022-11-20T23:27:22;3.20;99.90
36548;DHT22;22551;52.206;4.856;2022-11-20T23:32:24;3.30;99.90
36548;DHT22;22551;52.206;4.856;2022-11-20T23:37:27;3.30;99.90
36548;DHT22;22551;52.206;4.856;2022-11-20T23:42:30;3.30;99.90
36548;DHT22;22551;52.206;4.856;2022-11-20T23:47:33;3.40;99.90
36548;DHT22;22551;52.206;4.856;2022-11-20T23:52:35;3.40;99.90
36548;DHT22;22551;52.206;4.856;2022-11-20T23:57:38;3.40;99.90
